Time;durP1;ratioP1;P1;durP2;ratioP2;P2;SDS_P1;SDS_P2;PMS_P1;PMS_P2;Temp;Humidity;BMP_temperature;BMP_pressure;BME280_temperature;BME280_humidity;BME280_pressure;Samples;Min_cycle;Max_cycle;Signal;HPM_P1;HPM_P2
2022/06/10 00:02:02;;;;;;;;;10.25;9.00;;;;;14.56;72.77;101048.03;5036770;28;45334;-71
2022/06/10 00:04:28;;;;;;;;;10.00;10.00;;;;;14.60;72.97;101058.66;5036642;28;45374;-71
2022/06/10 00:06:53;;;;;;;;;11.25;10.25;;;;;14.59;72.40;101062.16;5037138;28;45406;-71
2022/06/10 00:09:19;;;;;;;;;10.00;9.50;;;;;14.53;72.70;101057.63;5036256;28;46291;-71
2022/06/10 00:11:44;;;;;;;;;11.75;11.75;;;;;14.50;73.32;101060.19;5036443;28;45417;-71
2022/06/10 00:14:10;;;;;;;;;10.25;9.50;;;;;14.45;73.16;101046.06;5036418;28;45426;-71
2022/06/10 00:16:35;;;;;;;;;14.25;12.75;;;;;14.43;73.41;101049.50;5036627;28;45450;-70
2022/06/10 00:19:01;;;;;;;;;11.50;10.25;;;;;14.44;73.68;101046.91;5036567;28;46189;-70
2022/06/10 00:21:27;;;;;;;;;6.50;6.00;;;;;14.43;73.28;101049.50;5036351;28;45228;-71
2022/06/10 00:23:52;;;;;;;;;4.00;4.00;;;;;14.39;73.25;101048.53;5036342;28;45475;-71
2022/06/10 00:26:18;;;;;;;;;5.00;5.00;;;;;14.40;73.24;101047.69;5034107;28;45497;-71
2022/06/10 00:28:45;;;;;;;;;4.00;4.00;;;;;14.40;73.52;101054.69;5035978;28;45890;-71
2022/06/10 00:31:13;;;;;;;;;4.50;3.00;;;;;14.34;73.37;101042.28;5036185;28;45520;-71
2022/06/10 00:33:40;;;;;;;;;2.00;2.00;;;;;14.38;73.61;101057.25;5036428;28;45553;-71
2022/06/10 00:36:07;;;;;;;;;4.67;4.00;;;;;14.35;73.22;101051.97;5033668;28;45534;-72
2022/06/10 00:38:33;;;;;;;;;3.00;3.00;;;;;14.33;73.36;101051.03;5036183;28;45575;-72
2022/06/10 00:41:00;;;;;;;;;3.00;3.00;;;;;14.29;73.64;101050.06;5036202;28;45351;-71
2022/06/10 00:43:31;;;;;;;;;4.00;3.00;;;;;14.28;74.07;101056.19;5035982;28;45392;-70
2022/06/10 00:46:17;;;;;;;;;5.00;4.00;;;;;14.28;73.20;101056.19;5036260;28;45636;-71
2022/06/10 00:48:55;;;;;;;;;3.67;3.00;;;;;14.26;73.89;101043.84;5035291;28;45528;-71
2022/06/10 00:51:42;;;;;;;;;4.00;4.00;;;;;14.22;73.62;101052.53;5037480;28;45476;-72
2022/06/10 00:54:29;;;;;;;;;6.00;4.00;;;;;14.18;74.04;101046.31;5036325;28;45461;-70
2022/06/10 00:57:04;;;;;;;;;4.50;3.50;;;;;14.16;74.28;101049.75;5037639;28;45354;-70
2022/06/10 00:59:44;;;;;;;;;5.00;4.75;;;;;14.14;74.20;101039.19;5037344;28;46698;-71
2022/06/10 01:02:16;;;;;;;;;9.75;9.00;;;;;14.08;73.31;101039.94;5037193;28;45318;-70
2022/06/10 01:04:43;;;;;;;;;10.25;9.00;;;;;14.00;74.28;101035.38;5037060;28;45500;-70
2022/06/10 01:07:11;;;;;;;;;7.00;6.75;;;;;13.95;74.46;101030.00;5037595;28;45474;-70
2022/06/10 01:09:38;;;;;;;;;7.75;7.00;;;;;14.01;75.12;101034.53;5036977;28;45817;-71
2022/06/10 01:12:27;;;;;;;;;9.00;7.75;;;;;14.02;74.89;101028.41;5037402;28;45520;-71
2022/06/10 01:15:15;;;;;;;;;7.00;6.00;;;;;14.04;74.53;101030.22;5037117;28;45500;-71
2022/06/10 01:18:14;;;;;;;;;7.75;7.75;;;;;14.02;74.33;101026.66;5037270;28;45380;-71
2022/06/10 01:20:45;;;;;;;;;9.25;8.75;;;;;14.02;74.42;101026.66;5036649;28;45488;-71
2022/06/10 01:23:43;;;;;;;;;6.25;4.25;;;;;13.97;74.16;101017.81;5036999;28;45351;-70
2022/06/10 01:30:05;;;;;;;;;16.00;14.00;;;;;13.90;74.99;101016.75;5037120;28;45534;-71
2022/06/10 01:32:38;;;;;;;;;29.75;27.50;;;;;13.90;75.39;101008.00;5028279;28;46031;-70
2022/06/10 01:35:04;;;;;;;;;10.50;10.00;;;;;13.91;74.40;101007.16;5037144;28;45509;-72
2022/06/10 01:37:40;;;;;;;;;8.25;7.75;;;;;13.87;74.34;100998.31;5036942;28;45512;-72
2022/06/10 01:40:47;;;;;;;;;5.00;5.00;;;;;13.85;74.25;101012.28;5037655;28;45288;-71
2022/06/10 01:43:18;;;;;;;;;3.25;3.25;;;;;13.82;74.22;101001.69;5025498;28;45555;-70
2022/06/10 01:45:56;;;;;;;;;4.75;3.00;;;;;13.77;74.08;101000.66;5036709;28;45609;-71
2022/06/10 01:48:57;;;;;;;;;3.25;3.25;;;;;13.72;74.53;100997.94;5036993;28;45283;-70
2022/06/10 01:52:00;;;;;;;;;3.25;3.00;;;;;13.68;74.79;100994.34;5025343;28;45472;-71
2022/06/10 01:54:44;;;;;;;;;5.00;4.00;;;;;13.63;73.89;100996.00;5036584;28;45388;-71
2022/06/10 01:57:15;;;;;;;;;8.00;7.00;;;;;13.52;74.18;101000.06;5036671;28;45389;-70
2022/06/10 01:59:51;;;;;;;;;11.75;10.25;;;;;13.38;74.78;100985.72;5036737;28;45544;-71
2022/06/10 02:02:31;;;;;;;;;11.50;11.50;;;;;13.27;75.23;100981.06;5036786;28;45321;-72
2022/06/10 02:05:20;;;;;;;;;11.25;10.00;;;;;13.23;75.57;100987.06;5036268;28;45515;-71
2022/06/10 02:08:02;;;;;;;;;14.25;12.25;;;;;13.25;75.96;100987.09;5036353;28;45492;-72
2022/06/10 02:11:06;;;;;;;;;15.25;15.00;;;;;13.28;76.19;100990.69;5036341;28;45354;-71
2022/06/10 02:13:55;;;;;;;;;13.25;12.50;;;;;13.31;76.12;100988.19;5036602;28;45410;-71
2022/06/10 02:16:26;;;;;;;;;12.50;12.50;;;;;13.18;75.86;100961.56;5036187;28;46018;-70
2022/06/10 02:19:25;;;;;;;;;12.25;11.00;;;;;13.31;75.77;100982.06;5039593;28;45437;-70
2022/06/10 02:22:04;;;;;;;;;16.75;15.75;;;;;13.32;75.85;100976.81;5039889;28;45472;-71
2022/06/10 02:25:14;;;;;;;;;14.00;12.00;;;;;13.33;76.02;100977.75;5040182;28;45588;-71
2022/06/10 02:27:48;;;;;;;;;12.25;11.75;;;;;13.33;75.89;100976.00;5017219;28;46355;-71
2022/06/10 02:30:28;;;;;;;;;12.25;11.00;;;;;13.33;75.81;100970.75;5017409;28;45297;-70
2022/06/10 02:32:56;;;;;;;;;10.75;10.00;;;;;13.23;75.41;100960.84;5031038;28;45369;-70
2022/06/10 02:35:27;;;;;;;;;6.50;5.50;;;;;13.28;75.14;100961.81;5039790;28;45576;-70
2022/06/10 02:38:14;;;;;;;;;5.25;5.00;;;;;13.25;75.45;100968.72;5039606;28;45971;-70
2022/06/10 02:41:14;;;;;;;;;6.00;5.00;;;;;13.22;75.32;100966.91;5039995;28;45462;-71
2022/06/10 02:44:07;;;;;;;;;7.00;6.00;;;;;13.21;75.11;100959.91;5039754;28;45344;-70
2022/06/10 02:46:39;;;;;;;;;7.00;7.00;;;;;13.23;75.95;100962.53;5039836;28;45507;-71
2022/06/10 02:49:10;;;;;;;;;5.00;3.00;;;;;13.22;75.31;100955.53;5039466;28;46134;-71
2022/06/10 02:51:37;;;;;;;;;6.00;5.00;;;;;13.18;75.30;100956.31;5039720;28;45493;-71
2022/06/10 02:54:07;;;;;;;;;3.25;3.25;;;;;13.16;75.73;100958.00;5039698;28;45454;-71
2022/06/10 02:56:33;;;;;;;;;5.00;5.00;;;;;13.17;75.92;100958.06;5039636;28;45385;-71
2022/06/10 03:02:04;;;;;;;;;4.00;4.00;;;;;13.19;76.02;100953.75;5039291;28;45500;-70
2022/06/10 03:05:07;;;;;;;;;3.75;3.00;;;;;13.21;76.03;100953.75;5039332;28;45516;-71
2022/06/10 03:08:03;;;;;;;;;4.50;3.75;;;;;13.18;75.84;100945.81;5039509;28;45349;-70
2022/06/10 03:10:44;;;;;;;;;6.75;6.75;;;;;13.09;75.41;100954.31;5038861;28;45365;-71
2022/06/10 03:13:15;;;;;;;;;6.00;5.75;;;;;13.04;75.04;100951.59;5039436;28;45346;-71
2022/06/10 03:15:44;;;;;;;;;6.75;6.00;;;;;12.96;75.37;100954.88;5039313;28;45468;-70
2022/06/10 03:18:17;;;;;;;;;6.00;4.50;;;;;12.90;75.71;100947.72;5039597;28;45446;-71
2022/06/10 03:20:59;;;;;;;;;4.50;4.00;;;;;12.84;76.63;100956.28;5039018;28;46202;-71
2022/06/10 03:23:44;;;;;;;;;5.00;5.00;;;;;12.84;77.22;100953.69;5038881;28;45412;-71
2022/06/10 03:26:31;;;;;;;;;7.00;7.00;;;;;12.85;77.30;100957.19;5039171;28;45267;-71
2022/06/10 03:29:35;;;;;;;;;4.50;4.25;;;;;12.87;77.19;100959.03;5038969;28;45742;-71
2022/06/10 03:32:09;;;;;;;;;4.00;4.00;;;;;12.87;76.54;100959.03;5030365;28;46252;-71
2022/06/10 03:34:40;;;;;;;;;4.75;4.00;;;;;12.88;76.21;100965.13;5038673;28;45551;-72
2022/06/10 03:37:11;;;;;;;;;3.25;3.25;;;;;12.87;75.93;100964.25;5038837;28;45318;-71
2022/06/10 03:39:39;;;;;;;;;3.25;3.25;;;;;12.83;76.18;100964.13;5038871;28;45361;-71
2022/06/10 03:42:16;;;;;;;;;3.50;2.75;;;;;12.79;76.00;100960.50;5038634;28;46061;-71
2022/06/10 03:44:44;;;;;;;;;4.00;3.25;;;;;12.81;76.37;100963.19;5038809;28;45234;-71
2022/06/10 03:47:16;;;;;;;;;4.00;4.00;;;;;12.80;76.23;100958.81;5039105;28;45536;-71
2022/06/10 03:49:48;;;;;;;;;4.75;4.00;;;;;12.63;76.64;100937.34;5038973;28;45296;-72
2022/06/10 03:52:24;;;;;;;;;3.25;3.00;;;;;12.79;77.29;100957.91;5038886;28;46201;-71
2022/06/10 03:54:50;;;;;;;;;3.75;3.75;;;;;12.78;77.35;100945.66;5038480;28;45161;-71
2022/06/10 03:57:17;;;;;;;;;4.25;4.00;;;;;12.81;76.47;100961.47;5038383;28;45498;-71
2022/06/10 03:59:44;;;;;;;;;7.00;7.00;;;;;12.78;76.70;100964.00;5039139;28;45402;-71
2022/06/10 04:02:10;;;;;;;;;7.25;7.25;;;;;12.76;77.24;100957.81;5038629;28;45410;-72
2022/06/10 04:04:36;;;;;;;;;8.50;8.50;;;;;12.77;77.43;100949.09;5038263;28;45472;-72
2022/06/10 04:07:02;;;;;;;;;9.00;9.00;;;;;12.79;77.30;100939.53;5038395;28;45379;-72
2022/06/10 04:09:28;;;;;;;;;10.50;10.00;;;;;12.80;77.79;100941.34;5038575;28;45431;-70
2022/06/10 04:11:53;;;;;;;;;10.00;9.00;;;;;12.82;77.96;100939.63;5037961;28;46118;-71
2022/06/10 04:14:19;;;;;;;;;5.00;5.00;;;;;12.84;77.12;100947.56;5038121;28;45410;-70
2022/06/10 04:16:44;;;;;;;;;3.25;3.00;;;;;12.84;76.76;100955.41;5038575;28;45465;-70
2022/06/10 04:19:12;;;;;;;;;4.00;4.00;;;;;12.72;76.66;100933.25;5038354;28;45449;-70
2022/06/10 04:21:38;;;;;;;;;4.00;3.00;;;;;12.80;76.72;100946.56;5037913;28;45489;-71
2022/06/10 04:24:04;;;;;;;;;1.67;1.67;;;;;12.82;76.83;100955.38;5037972;28;45354;-71
2022/06/10 04:26:29;;;;;;;;;3.00;3.00;;;;;12.87;76.96;100963.34;5038316;28;45471;-71
2022/06/10 04:28:55;;;;;;;;;4.00;3.00;;;;;12.89;77.21;100952.06;5038279;28;45472;-71
2022/06/10 04:31:20;;;;;;;;;2.67;2.67;;;;;12.93;76.84;100947.78;5037828;28;45862;-71
2022/06/10 04:33:46;;;;;;;;;3.00;2.00;;;;;12.96;76.82;100947.00;5038201;28;45453;-72
2022/06/10 04:36:16;;;;;;;;;4.00;3.00;;;;;12.98;76.74;100948.81;5038251;28;45461;-71
2022/06/10 04:38:42;;;;;;;;;3.00;3.00;;;;;12.93;76.81;100926.81;5038481;28;45516;-71
2022/06/10 04:41:08;;;;;;;;;3.67;3.67;;;;;13.03;76.65;100944.59;5037040;28;46182;-71
2022/06/10 04:43:34;;;;;;;;;5.00;5.00;;;;;13.05;76.29;100945.50;5037657;28;45407;-71
2022/06/10 04:46:05;;;;;;;;;3.00;2.00;;;;;13.06;76.04;100947.25;5037702;28;45448;-72
2022/06/10 04:48:31;;;;;;;;;2.00;1.33;;;;;13.07;76.37;100940.28;5037813;28;45430;-71
2022/06/10 04:50:56;;;;;;;;;5.00;4.00;;;;;12.99;75.52;100923.47;5037478;28;46116;-72
2022/06/10 04:53:22;;;;;;;;;3.00;2.67;;;;;12.98;75.22;100935.69;5037648;28;45496;-73
2022/06/10 04:55:47;;;;;;;;;4.00;3.00;;;;;12.89;75.29;100914.47;5037962;28;45497;-71
2022/06/10 04:58:13;;;;;;;;;5.00;3.33;;;;;13.06;75.68;100936.78;5038012;28;45493;-71
2022/06/10 05:00:42;;;;;;;;;3.00;2.33;;;;;13.08;75.38;100931.56;5037334;28;46027;-72
2022/06/10 05:03:09;;;;;;;;;2.67;2.00;;;;;13.08;75.43;100937.69;5037929;28;45532;-71
2022/06/10 05:05:36;;;;;;;;;2.00;2.00;;;;;13.09;75.16;100935.97;5038755;28;45434;-72
2022/06/10 05:08:03;;;;;;;;;4.00;4.00;;;;;12.98;75.23;100908.59;5037393;28;45353;-72
2022/06/10 05:10:29;;;;;;;;;4.00;3.00;;;;;13.13;75.43;100930.84;5037052;28;46110;-72
2022/06/10 05:12:54;;;;;;;;;4.00;4.00;;;;;13.16;75.17;100934.41;5037041;28;45435;-71
2022/06/10 05:15:21;;;;;;;;;5.00;4.25;;;;;13.19;74.59;100945.88;5037104;28;45458;-71
2022/06/10 05:17:51;;;;;;;;;5.00;5.00;;;;;13.17;74.93;100944.03;5037609;28;45319;-71
2022/06/10 05:20:23;;;;;;;;;4.00;4.00;;;;;13.15;74.93;100944.00;5037183;28;45447;-71
2022/06/10 05:22:49;;;;;;;;;6.00;4.00;;;;;13.05;75.07;100915.75;5037201;28;45524;-71
2022/06/10 05:25:15;;;;;;;;;4.75;4.75;;;;;13.25;75.05;100939.84;5037321;28;45499;-71
2022/06/10 05:27:41;;;;;;;;;6.00;5.00;;;;;13.31;75.50;100938.34;5037348;28;45350;-70
2022/06/10 05:30:09;;;;;;;;;4.25;4.25;;;;;13.33;75.57;100923.50;5036937;28;45280;-71
2022/06/10 05:32:36;;;;;;;;;4.25;4.00;;;;;13.55;75.26;100950.28;5037192;28;45481;-71
2022/06/10 05:35:01;;;;;;;;;7.25;6.75;;;;;13.63;74.86;100959.22;5037061;28;45298;-72
2022/06/10 05:37:27;;;;;;;;;6.50;5.00;;;;;13.70;74.63;100953.25;5037195;28;45556;-73
2022/06/10 05:39:53;;;;;;;;;3.00;2.00;;;;;13.76;74.85;100955.16;5036644;28;45774;-71
2022/06/10 05:42:19;;;;;;;;;5.00;5.00;;;;;13.87;74.86;100955.41;5037171;28;45524;-72
2022/06/10 05:44:48;;;;;;;;;4.25;4.25;;;;;13.88;74.58;100933.53;5038135;28;45583;-71
2022/06/10 05:47:23;;;;;;;;;6.50;5.00;;;;;14.05;74.02;100945.31;5037149;28;45601;-72
2022/06/10 05:49:51;;;;;;;;;7.50;5.00;;;;;14.16;73.72;100955.16;5036611;28;46260;-71
2022/06/10 05:52:20;;;;;;;;;4.00;4.00;;;;;14.17;73.30;100942.06;5038077;28;45384;-71
2022/06/10 05:54:47;;;;;;;;;4.00;4.00;;;;;14.32;73.07;100946.75;5040567;28;46063;-71
2022/06/10 05:57:13;;;;;;;;;4.00;4.00;;;;;14.23;73.20;100915.94;5040655;28;45330;-72
2022/06/10 05:59:39;;;;;;;;;3.67;3.33;;;;;15.06;72.64;100924.53;5040325;28;46066;-72
2022/06/10 06:02:08;;;;;;;;;5.33;5.00;;;;;19.10;63.47;100930.25;5040174;28;45280;-72
2022/06/10 06:04:34;;;;;;;;;6.00;5.00;;;;;22.79;53.60;100925.25;5040197;28;45472;-72
2022/06/10 06:07:00;;;;;;;;;2.67;2.67;;;;;25.47;46.37;100903.09;5038762;28;45251;-72
2022/06/10 06:09:26;;;;;;;;;2.67;2.67;;;;;27.63;39.67;100909.03;5039825;28;45406;-71
2022/06/10 06:11:56;;;;;;;;;3.00;2.00;;;;;29.23;38.09;100912.88;5039952;28;45589;-72
2022/06/10 06:14:23;;;;;;;;;2.00;2.00;;;;;30.22;36.14;100894.16;5040179;28;45346;-72
2022/06/10 06:16:54;;;;;;;;;2.00;2.00;;;;;31.44;33.52;100905.34;5040319;28;45545;-72
2022/06/10 06:19:21;;;;;;;;;2.00;2.00;;;;;32.63;30.14;100921.53;5040117;28;45327;-72
2022/06/10 06:21:46;;;;;;;;;2.00;2.00;;;;;33.59;29.56;100924.13;5039877;28;45576;-72
2022/06/10 06:24:12;;;;;;;;;3.00;2.00;;;;;34.57;27.30;100934.28;5039972;28;45500;-73
2022/06/10 06:26:38;;;;;;;;;2.33;2.33;;;;;35.37;26.27;100933.59;5040056;28;45286;-73
2022/06/10 06:29:03;;;;;;;;;2.67;2.33;;;;;36.04;26.08;100925.34;5039731;28;45427;-73
2022/06/10 06:31:29;;;;;;;;;2.67;2.67;;;;;36.75;24.57;100914.81;5039649;28;45331;-73
2022/06/10 06:33:54;;;;;;;;;2.00;2.00;;;;;37.55;23.68;100938.75;5039919;28;45481;-73
2022/06/10 06:36:26;;;;;;;;;2.00;2.00;;;;;38.19;23.40;100939.16;5040183;28;45268;-73
2022/06/10 06:38:51;;;;;;;;;2.67;2.67;;;;;38.82;22.77;100933.19;5040045;28;46014;-73
2022/06/10 06:41:18;;;;;;;;;2.00;2.00;;;;;39.31;20.82;100931.75;5028873;28;45427;-73
2022/06/10 06:43:45;;;;;;;;;6.00;5.67;;;;;39.91;20.76;100934.84;5029112;28;45346;-73
2022/06/10 06:46:17;;;;;;;;;2.67;2.67;;;;;40.60;21.59;100932.44;5027987;28;45375;-74
2022/06/10 06:48:44;;;;;;;;;2.00;1.00;;;;;40.98;20.07;100936.28;5026747;28;45844;-73
2022/06/10 06:51:10;;;;;;;;;2.00;2.00;;;;;41.38;20.19;100932.56;5028069;28;45548;-73
2022/06/10 06:53:36;;;;;;;;;3.00;3.00;;;;;41.84;19.31;100933.66;5028492;28;45571;-73
2022/06/10 06:56:05;;;;;;;;;4.67;3.33;;;;;42.21;19.53;100935.59;5026811;28;45492;-72
2022/06/10 06:58:32;;;;;;;;;3.00;3.00;;;;;42.60;17.70;100935.41;5027669;28;45487;-72
2022/06/10 07:00:57;;;;;;;;;2.33;1.67;;;;;43.01;17.83;100941.41;5023506;28;45856;-73
2022/06/10 07:03:23;;;;;;;;;3.00;2.67;;;;;43.35;17.68;100935.22;5018895;28;45331;-74
2022/06/10 07:05:49;;;;;;;;;2.00;2.00;;;;;43.76;18.09;100938.34;5019644;28;45299;-73
2022/06/10 07:08:15;;;;;;;;;1.67;1.67;;;;;43.91;17.48;100925.69;5018819;28;46153;-73
2022/06/10 07:10:41;;;;;;;;;3.00;2.00;;;;;44.37;16.65;100940.09;5032328;28;45385;-75
2022/06/10 07:13:07;;;;;;;;;2.67;2.67;;;;;44.66;17.15;100931.41;5038081;28;45227;-73
2022/06/10 07:15:32;;;;;;;;;4.00;2.33;;;;;44.84;16.76;100936.78;5027606;28;45315;-75
2022/06/10 07:18:00;;;;;;;;;2.00;2.00;;;;;44.96;17.05;100933.75;5027870;28;45538;-72
2022/06/10 07:20:35;;;;;;;;;2.00;2.00;;;;;45.00;16.36;100938.75;5025445;28;45619;-73
2022/06/10 07:23:01;;;;;;;;;2.00;1.33;;;;;45.13;15.79;100924.47;5028388;28;45698;-73
2022/06/10 07:25:29;;;;;;;;;1.33;1.33;;;;;45.54;15.79;100931.91;5022488;28;45587;-74
2022/06/10 07:27:55;;;;;;;;;1.00;1.00;;;;;45.61;15.48;100877.75;5034901;28;46760;-73
2022/06/10 07:30:24;;;;;;;;;2.00;1.33;;;;;46.03;15.61;100913.41;5028233;28;45392;-73
2022/06/10 07:32:51;;;;;;;;;2.67;2.67;;;;;46.59;15.05;100931.84;5027749;28;45397;-73
2022/06/10 07:35:20;;;;;;;;;1.00;1.00;;;;;46.71;14.42;100927.59;5027262;28;45560;-73
2022/06/10 07:37:46;;;;;;;;;1.67;1.67;;;;;46.75;14.54;100925.34;5024974;28;45436;-74
2022/06/10 07:41:56;;;;;;;;;2.33;2.33;;;;;47.02;14.51;100924.00;5032862;28;45488;-74
2022/06/10 07:43:03;;;;;;;;;2.67;1.67;;;;;47.56;14.74;100932.22;5027570;28;45419;-74
2022/06/10 07:45:29;;;;;;;;;1.67;1.67;;;;;47.73;13.77;100904.38;5027229;28;45395;-74
2022/06/10 07:47:55;;;;;;;;;1.67;1.67;;;;;47.90;14.51;100911.44;5027058;28;45554;-74
2022/06/10 07:50:23;;;;;;;;;2.33;1.33;;;;;48.38;13.40;100923.00;5019974;28;45316;-74
2022/06/10 07:52:49;;;;;;;;;0.67;0.67;;;;;48.61;13.71;100922.03;5018187;28;45542;-74
2022/06/10 07:55:16;;;;;;;;;1.00;1.00;;;;;48.49;13.35;100921.66;5018370;28;45666;-74
2022/06/10 07:57:42;;;;;;;;;0.67;0.67;;;;;48.64;13.13;100929.94;5019115;28;45530;-74
2022/06/10 08:00:10;;;;;;;;;1.33;1.33;;;;;48.94;13.18;100924.31;5018226;28;45451;-74
2022/06/10 08:02:37;;;;;;;;;2.67;1.00;;;;;49.21;13.67;100913.50;5018348;28;45467;-74
2022/06/10 08:05:04;;;;;;;;;2.33;2.00;;;;;49.46;13.03;100917.59;5018059;28;45348;-75
2022/06/10 08:07:29;;;;;;;;;3.33;1.00;;;;;49.77;12.76;100919.13;5018130;28;46301;-74
2022/06/10 08:09:55;;;;;;;;;1.00;1.00;;;;;49.95;13.04;100888.03;5018147;28;45297;-74
2022/06/10 08:12:21;;;;;;;;;0.67;0.67;;;;;50.32;12.24;100922.88;5018833;28;45453;-75
2022/06/10 08:14:47;;;;;;;;;0.67;0.67;;;;;50.47;11.88;100925.53;5017662;28;45404;-75
2022/06/10 08:17:13;;;;;;;;;0.67;0.67;;;;;50.41;12.13;100917.97;5017835;28;46201;-74
2022/06/10 08:19:39;;;;;;;;;0.67;0.67;;;;;50.60;12.04;100907.16;5018238;28;45464;-75
2022/06/10 08:24:50;;;;;;;;;0.00;0.00;;;;;50.64;11.32;100903.78;5018307;28;45493;-74
2022/06/10 08:27:16;;;;;;;;;0.67;0.67;;;;;50.79;11.34;100898.03;5017981;28;46184;-75
2022/06/10 08:29:42;;;;;;;;;0.67;0.67;;;;;50.86;11.34;100923.97;5018030;28;45195;-75
2022/06/10 08:32:07;;;;;;;;;0.67;0.67;;;;;50.58;11.52;100921.28;5017925;28;45253;-74
2022/06/10 08:34:33;;;;;;;;;1.00;0.00;;;;;50.83;11.92;100924.38;5018395;28;45702;-74
2022/06/10 08:37:01;;;;;;;;;1.00;1.00;;;;;51.00;11.70;100924.84;5017942;28;46082;-75
2022/06/10 08:39:28;;;;;;;;;0.67;0.67;;;;;50.95;11.98;100913.47;5017737;28;45401;-75
2022/06/10 08:42:39;;;;;;;;;2.00;1.00;;;;;51.24;11.82;100919.75;5018188;28;45522;-75
2022/06/10 08:45:30;;;;;;;;;0.67;0.67;;;;;51.47;11.37;100913.72;5017956;28;45746;-74
2022/06/10 08:48:11;;;;;;;;;0.67;0.67;;;;;51.56;11.44;100906.06;5017808;28;45291;-75
2022/06/10 08:51:06;;;;;;;;;2.00;1.00;;;;;51.67;11.80;100897.84;5017483;28;45617;-75
2022/06/10 08:53:53;;;;;;;;;1.67;1.67;;;;;51.76;10.80;100867.00;5017582;28;45557;-75
2022/06/10 08:56:35;;;;;;;;;1.67;1.67;;;;;51.99;10.93;100899.97;5016547;28;45357;-75
2022/06/10 08:59:13;;;;;;;;;1.33;1.33;;;;;52.08;11.05;100905.06;5017179;28;45538;-75
2022/06/10 09:02:06;;;;;;;;;0.00;0.00;;;;;52.08;11.29;100896.72;5015760;28;45337;-75
2022/06/10 09:04:38;;;;;;;;;0.67;0.67;;;;;51.72;11.41;100902.78;5017246;28;45470;-75
2022/06/10 09:07:11;;;;;;;;;2.00;1.33;;;;;51.51;10.83;100884.41;5017440;28;45317;-75
2022/06/10 09:09:40;;;;;;;;;0.00;0.00;;;;;51.35;11.50;100893.19;5017007;28;45726;-75
2022/06/10 09:12:15;;;;;;;;;1.33;0.67;;;;;51.40;12.17;100888.69;5016707;28;45585;-74
2022/06/10 09:14:42;;;;;;;;;2.67;1.67;;;;;51.53;11.30;100890.59;5016938;28;45489;-75
2022/06/10 09:17:20;;;;;;;;;1.33;1.33;;;;;51.48;11.76;100890.44;5026199;28;45530;-74
2022/06/10 09:20:01;;;;;;;;;5.67;5.67;;;;;51.60;11.81;100887.84;5026104;28;45412;-75
2022/06/10 09:22:35;;;;;;;;;3.00;2.00;;;;;51.76;11.59;100879.00;5027194;28;45366;-75
2022/06/10 09:25:04;;;;;;;;;1.67;1.67;;;;;51.80;11.70;100885.00;5028632;28;45616;-74
2022/06/10 09:27:50;;;;;;;;;2.00;1.67;;;;;51.99;11.70;100884.09;5026912;28;45540;-74
2022/06/10 09:30:21;;;;;;;;;2.00;2.00;;;;;52.11;11.89;100881.47;5025743;28;45662;-73
2022/06/10 09:32:52;;;;;;;;;1.33;1.33;;;;;51.96;11.70;100881.75;5025876;28;45418;-74
2022/06/10 09:35:30;;;;;;;;;3.67;3.00;;;;;51.89;11.91;100887.38;5024220;28;45724;-73
2022/06/10 09:37:59;;;;;;;;;1.67;1.67;;;;;51.94;11.92;100878.34;5026109;28;45457;-73
2022/06/10 09:40:42;;;;;;;;;3.33;2.67;;;;;52.09;11.83;100880.84;5025868;28;45453;-74
2022/06/10 09:43:23;;;;;;;;;3.00;3.00;;;;;52.03;11.47;100865.00;5025675;28;45449;-73
2022/06/10 09:45:54;;;;;;;;;3.00;2.67;;;;;51.86;11.63;100861.88;5025011;28;45567;-73
2022/06/10 09:48:52;;;;;;;;;6.00;4.75;;;;;51.50;12.32;100858.50;5026041;28;46286;-72
2022/06/10 09:51:28;;;;;;;;;2.00;2.00;;;;;51.78;11.37;100864.88;5026251;28;45483;-74
2022/06/10 09:54:17;;;;;;;;;1.67;1.67;;;;;51.68;12.07;100865.31;5025460;28;45474;-74
2022/06/10 09:56:53;;;;;;;;;1.67;1.67;;;;;51.56;11.69;100867.06;5025578;28;45546;-74
2022/06/10 09:59:23;;;;;;;;;1.33;1.33;;;;;51.36;11.58;100865.13;5025415;28;45878;-74
2022/06/10 10:02:15;;;;;;;;;1.67;1.33;;;;;51.06;11.71;100859.97;5025049;28;45361;-73
2022/06/10 10:04:57;;;;;;;;;1.67;1.67;;;;;50.54;11.63;100864.38;5026648;28;45612;-75
2022/06/10 10:07:29;;;;;;;;;2.33;2.33;;;;;50.28;12.31;100863.22;5028363;28;45895;-74
2022/06/10 10:10:00;;;;;;;;;2.33;2.33;;;;;49.48;12.77;100854.41;5035451;28;45178;-74
2022/06/10 10:13:11;;;;;;;;;3.33;2.00;;;;;49.03;12.53;100859.38;5035315;28;46061;-73
2022/06/10 10:15:36;;;;;;;;;2.00;2.00;;;;;49.65;12.93;100859.66;5035087;28;45501;-74
2022/06/10 10:18:13;;;;;;;;;2.00;1.33;;;;;49.54;13.26;100861.06;5035199;28;45446;-74
2022/06/10 10:21:09;;;;;;;;;2.00;2.00;;;;;49.53;12.61;100857.44;5035331;28;45252;-73
2022/06/10 10:23:49;;;;;;;;;2.33;1.33;;;;;49.53;12.27;100857.44;5034195;28;45518;-72
2022/06/10 10:26:24;;;;;;;;;1.33;1.33;;;;;49.31;12.52;100850.22;5034344;28;45802;-74
2022/06/10 10:29:14;;;;;;;;;1.33;1.33;;;;;49.04;13.05;100854.69;5034797;28;45356;-74
2022/06/10 10:31:48;;;;;;;;;3.00;2.00;;;;;48.92;12.80;100827.44;5034911;28;45307;-74
2022/06/10 10:34:21;;;;;;;;;2.00;1.67;;;;;48.92;13.48;100846.00;5028228;28;46223;-73
2022/06/10 10:36:59;;;;;;;;;2.67;2.00;;;;;48.59;13.50;100854.84;5026543;28;45531;-72
2022/06/10 10:39:53;;;;;;;;;1.67;1.67;;;;;48.22;13.83;100853.94;5028823;28;45557;-75
2022/06/10 10:42:22;;;;;;;;;2.33;1.33;;;;;47.38;14.07;100845.91;5027147;28;45446;-74
2022/06/10 10:45:21;;;;;;;;;2.00;1.67;;;;;46.42;14.40;100790.13;5027736;28;46240;-72
2022/06/10 10:48:00;;;;;;;;;1.33;1.33;;;;;45.40;15.79;100846.03;5036085;28;45854;-72
2022/06/10 10:50:40;;;;;;;;;2.00;2.00;;;;;44.78;16.21;100849.28;5029367;28;45576;-73
2022/06/10 10:53:20;;;;;;;;;2.33;2.33;;;;;45.08;16.17;100841.41;5028930;28;45492;-73
2022/06/10 10:55:51;;;;;;;;;2.67;2.00;;;;;44.87;15.78;100817.13;5028015;28;45559;-75
2022/06/10 10:58:24;;;;;;;;;2.67;2.00;;;;;44.95;16.45;100819.88;5027902;28;45402;-73
2022/06/10 11:01:02;;;;;;;;;1.67;1.67;;;;;44.70;16.48;100827.22;5044732;28;45437;-73
2022/06/10 11:03:30;;;;;;;;;3.00;2.00;;;;;43.84;17.30;100825.56;5029549;28;45565;-73
2022/06/10 11:05:58;;;;;;;;;3.00;1.67;;;;;43.68;17.57;100835.44;5030977;28;45360;-72
2022/06/10 11:08:32;;;;;;;;;2.00;2.00;;;;;43.21;17.51;100834.88;5038262;28;45282;-74
2022/06/10 11:11:06;;;;;;;;;2.67;2.67;;;;;40.87;19.75;100794.81;5038447;28;45364;-73
2022/06/10 11:13:41;;;;;;;;;2.67;2.67;;;;;39.24;21.57;100832.19;5039269;28;45395;-73
2022/06/10 11:16:28;;;;;;;;;1.67;1.67;;;;;37.12;23.67;100831.22;5038611;28;45300;-74
2022/06/10 11:18:58;;;;;;;;;2.00;1.67;;;;;36.12;25.19;100822.31;5038871;28;45258;-73
2022/06/10 11:21:28;;;;;;;;;4.00;4.00;;;;;35.31;26.26;100830.81;5038830;28;45502;-72
2022/06/10 11:23:57;;;;;;;;;3.00;3.00;;;;;34.70;27.49;100817.72;5039013;28;45279;-73
2022/06/10 11:26:25;;;;;;;;;2.33;2.33;;;;;34.13;27.69;100825.94;5038708;28;45438;-73
2022/06/10 11:29:00;;;;;;;;;2.33;2.33;;;;;33.70;29.03;100832.25;5038628;28;45259;-73
2022/06/10 11:31:35;;;;;;;;;2.67;2.67;;;;;32.98;29.03;100826.63;5038452;28;45453;-72
2022/06/10 11:34:03;;;;;;;;;1.67;1.67;;;;;32.65;30.16;100826.75;5039356;28;45318;-72
2022/06/10 11:36:44;;;;;;;;;3.00;3.00;;;;;32.44;29.52;100831.56;5038064;28;46228;-72
2022/06/10 11:39:15;;;;;;;;;5.67;3.00;;;;;32.04;30.73;100823.84;5038263;28;45472;-73
2022/06/10 11:41:41;;;;;;;;;3.00;3.00;;;;;31.83;31.26;100814.19;5038398;28;45532;-72
2022/06/10 11:44:18;;;;;;;;;2.67;2.67;;;;;31.78;31.63;100819.00;5038118;28;45450;-72
2022/06/10 11:47:12;;;;;;;;;3.00;3.00;;;;;31.64;32.65;100820.59;5037957;28;45478;-72
2022/06/10 11:49:50;;;;;;;;;3.33;2.67;;;;;31.24;32.06;100813.72;5037960;28;45377;-73
2022/06/10 11:52:30;;;;;;;;;3.67;3.00;;;;;30.71;32.95;100816.34;5038085;28;45262;-72
2022/06/10 11:55:26;;;;;;;;;2.67;2.67;;;;;30.56;33.81;100816.22;5038280;28;45497;-72
2022/06/10 12:00:55;;;;;;;;;3.00;3.00;;;;;30.58;33.62;100809.81;5037440;28;45906;-72
2022/06/10 12:03:30;;;;;;;;;4.00;4.00;;;;;30.63;33.79;100809.59;5036144;28;45525;-72
2022/06/10 12:06:31;;;;;;;;;3.33;3.33;;;;;30.61;33.85;100809.66;5037771;28;45460;-72